Huvudsida
METAR-TAF:

METAR-TAF

Flygplatser :

Adolfo Suárez Madrid-Barajas flygplats

Madrid, Spanien

latitud: 40-27N, longitud: 003-33W, höjd: 609 m

Aktuellt väderrapport

Denna rapport gjordes för 16 minuter sedan, klockan 07:30 UTC
Vind 1 kt varierande vindriktning
Temperatur 12°C
Fuktighet 76%
Tryck 1027 hPa
Sikt 10 km eller mer
Inga moln under 1 500 m eller inga cumulonimbus

METAR: LEMD 140730Z VRB01KT CAVOK 12/08 Q1027 NOSIG

Tid: 09:46 (07:46 UTC)

Väderprognos

Denna rapport gjordes för 2 timmar och 46 minuter sedan, klockan 05:00 UTC
Prognos gäller från 14 kl. 06 UTC till 15 kl. 12 UTC
Vind 4 kt varierande vindriktning
Sikt 10 km eller mer
Inga moln under 1 500 m eller inga cumulonimbus
Sannolikhet 40% :
Temporärt
från 14 kl. 13 UTC till 14 kl. 20 UTC
Vind 8 kt från syd/sydväst

TAF: LEMD 140500Z 1406/1512 VRB04KT CAVOK TX30/1415Z TN08/1406Z PROB40 TEMPO 1413/1420 21008KT

Aktuella väderrapporter och prognoser från 4000 flygplatser (METAR- och TAF-rapporter).

De tillgängliga stationerna syns som gula och röda prickar på kartan.

För musen över prickarna för att se namnen på stationerna.

Klicka sedan för att få väderrapporter och prognoser.

För att ändra kartan: Klicka på de gröna knapparna med ett svart kors på för att zooma in; den gröna knappen med ett streck på för att zooma ut; eller på de gröna pilarna för angränsande kartor.


METAR-TAF: